Hayes River, Alaska
Current Conditions -  °F | °C
As of 3:53 PM on Sunday 23 Nov 2014 (Local Time) from PATK Reporting Station
Clear Clear  
Wind Chill: 25°   Ceiling: Unl
Heat Index: 32°   Visibility: 10mi
Dew Point: 21°   Wind: 8mph
Humidity: 64%   Direction: 20°NNE
Pressure: 29.51"   Gusts: NA
Location:  61.98°N, 152.08°W
Report Text: PATK 240053Z 02007KT 10SM CLR 00/M06 A2951 RMK AO2 SLP997 T00001061
Loading
Personal Weather Stations






























Interactive Weather Map New forecast layout! Learn more

10-Day Weather Forecast

Advertisements
Track Severe Weather on mobile